createdAt,value
2022-12-25T00:01:28.225Z,4.25
2022-12-25T00:03:56.846Z,4.31
2022-12-25T00:06:23.471Z,4.28
2022-12-25T00:08:49.835Z,4.30
2022-12-25T00:11:18.281Z,4.36
2022-12-25T00:13:45.188Z,4.38
2022-12-25T00:16:19.093Z,4.50
2022-12-25T00:18:46.166Z,4.52
2022-12-25T00:21:13.806Z,4.55
2022-12-25T00:23:40.358Z,4.55
2022-12-25T00:26:09.364Z,4.56
2022-12-25T00:28:35.952Z,4.56
2022-12-25T00:31:06.963Z,4.53
2022-12-25T00:33:35.762Z,4.60
2022-12-25T00:36:02.877Z,4.62
2022-12-25T00:38:29.400Z,4.71
2022-12-25T00:40:55.789Z,4.77
2022-12-25T00:43:22.753Z,4.84
2022-12-25T00:46:03.108Z,4.89
2022-12-25T00:48:30.206Z,4.98
2022-12-25T00:50:59.390Z,5.08
2022-12-25T00:53:26.705Z,5.13
2022-12-25T00:56:05.200Z,5.16
2022-12-25T00:58:33.481Z,5.28
2022-12-25T01:01:00.062Z,5.35
2022-12-25T01:03:26.969Z,5.42
2022-12-25T01:05:58.572Z,5.54
2022-12-25T01:08:25.927Z,5.65
2022-12-25T01:11:01.325Z,5.71
2022-12-25T01:13:29.735Z,5.79
2022-12-25T01:15:56.292Z,5.86
2022-12-25T01:18:24.520Z,5.88
2022-12-25T01:20:51.469Z,5.90
2022-12-25T01:23:17.807Z,5.90
2022-12-25T01:25:44.126Z,5.98
2022-12-25T01:28:10.557Z,6.04
2022-12-25T01:30:37.041Z,6.08
2022-12-25T01:33:03.624Z,6.11
2022-12-25T01:35:30.157Z,6.15
2022-12-25T01:37:56.672Z,6.17
2022-12-25T01:40:23.057Z,6.20
2022-12-25T01:42:49.480Z,6.23
2022-12-25T01:45:32.554Z,6.26
2022-12-25T01:48:00.594Z,6.29
2022-12-25T01:50:28.371Z,6.26
2022-12-25T01:52:56.294Z,6.33
2022-12-25T01:55:23.484Z,6.29
2022-12-25T01:57:50.114Z,6.35
2022-12-25T02:00:16.859Z,6.40
2022-12-25T02:02:44.594Z,6.41
2022-12-25T02:05:22.267Z,6.43
2022-12-25T02:07:49.610Z,6.57
2022-12-25T02:10:16.986Z,6.66
2022-12-25T02:12:45.063Z,6.80
2022-12-25T02:15:16.850Z,7.06
2022-12-25T02:18:15.264Z,7.28
2022-12-25T02:20:50.497Z,7.44
2022-12-25T02:23:55.246Z,7.56
2022-12-25T02:26:55.304Z,7.68
2022-12-25T02:29:31.416Z,7.79
2022-12-25T02:32:16.416Z,7.87
2022-12-25T02:34:57.149Z,7.92
2022-12-25T02:37:30.140Z,7.97
2022-12-25T02:40:08.410Z,8.07
2022-12-25T02:42:40.731Z,8.11
2022-12-25T02:45:07.553Z,8.07
2022-12-25T02:47:36.298Z,8.10
2022-12-25T02:50:04.890Z,8.06
2022-12-25T02:52:31.781Z,8.04
2022-12-25T02:55:03.973Z,7.99
2022-12-25T02:57:35.111Z,8.01
2022-12-25T03:00:03.799Z,7.98
2022-12-25T03:02:33.580Z,7.90
2022-12-25T03:05:02.914Z,7.85
2022-12-25T03:07:30.039Z,7.77
2022-12-25T03:10:03.299Z,7.68
2022-12-25T03:12:42.357Z,7.66
2022-12-25T03:15:10.759Z,7.65
2022-12-25T03:17:37.570Z,7.63
2022-12-25T03:20:05.551Z,7.62
2022-12-25T03:22:32.619Z,7.61
2022-12-25T03:24:59.030Z,7.56
2022-12-25T03:27:26.813Z,7.55
2022-12-25T03:29:53.264Z,7.53
2022-12-25T03:32:26.600Z,7.49
2022-12-25T03:34:58.868Z,7.56
2022-12-25T03:37:25.160Z,7.56
2022-12-25T03:39:57.740Z,7.56
2022-12-25T03:42:43.480Z,7.61
2022-12-25T03:45:21.869Z,7.58
2022-12-25T03:47:51.810Z,7.63
2022-12-25T03:50:57.838Z,7.65
2022-12-25T03:53:37.854Z,7.69
2022-12-25T03:56:05.463Z,7.69
2022-12-25T03:58:31.841Z,7.76
2022-12-25T04:00:58.451Z,7.79
2022-12-25T04:03:24.978Z,7.78
2022-12-25T04:05:51.480Z,7.83
2022-12-25T04:08:17.898Z,7.89
2022-12-25T04:10:44.246Z,7.91
2022-12-25T04:13:11.224Z,7.92
2022-12-25T04:15:37.664Z,7.94
2022-12-25T04:18:04.425Z,7.91
2022-12-25T04:20:30.833Z,7.96
2022-12-25T04:22:57.283Z,7.97
2022-12-25T04:25:23.671Z,7.95
2022-12-25T04:27:50.113Z,7.92
2022-12-25T04:30:16.524Z,7.91
2022-12-25T04:32:42.882Z,7.94
2022-12-25T04:35:09.615Z,7.95
2022-12-25T04:37:36.040Z,7.95
2022-12-25T04:40:02.399Z,7.94
2022-12-25T04:42:28.847Z,7.95
2022-12-25T04:44:55.226Z,8.00
2022-12-25T04:47:21.610Z,8.04
2022-12-25T04:49:47.974Z,8.03
2022-12-25T04:52:14.635Z,8.04
2022-12-25T04:54:41.225Z,8.05
2022-12-25T04:57:07.620Z,8.04
2022-12-25T04:59:34.019Z,8.09
2022-12-25T05:02:00.587Z,8.09
2022-12-25T05:04:27.239Z,7.98
2022-12-25T05:06:53.570Z,8.02
2022-12-25T05:09:20.055Z,8.06
2022-12-25T05:11:46.410Z,8.01
2022-12-25T05:14:12.837Z,7.93
2022-12-25T05:16:39.521Z,7.86
2022-12-25T05:19:06.098Z,7.87
2022-12-25T05:21:32.668Z,7.85
2022-12-25T05:23:59.431Z,7.84
2022-12-25T05:26:26.666Z,7.76
2022-12-25T05:28:53.927Z,7.66
2022-12-25T05:31:20.583Z,7.61
2022-12-25T05:33:49.995Z,7.59
2022-12-25T05:36:16.382Z,7.52
2022-12-25T05:38:42.749Z,7.54
2022-12-25T05:41:09.205Z,7.51
2022-12-25T05:43:35.724Z,7.49
2022-12-25T05:46:09.581Z,7.47
2022-12-25T05:48:37.410Z,7.46
2022-12-25T05:51:08.397Z,7.44
2022-12-25T05:53:35.725Z,7.44
2022-12-25T05:56:03.826Z,7.42
2022-12-25T05:58:31.117Z,7.30
2022-12-25T06:00:57.899Z,7.35
2022-12-25T06:03:24.997Z,7.32
2022-12-25T06:05:51.670Z,7.27
2022-12-25T06:08:18.106Z,7.24
2022-12-25T06:10:44.480Z,7.25
2022-12-25T06:13:10.835Z,7.23
2022-12-25T06:15:41.328Z,7.24
2022-12-25T06:18:08.243Z,7.26
2022-12-25T06:20:34.608Z,7.28
2022-12-25T06:23:01.667Z,7.25
2022-12-25T06:25:28.218Z,7.29
2022-12-25T06:27:54.855Z,7.28
2022-12-25T06:30:21.236Z,7.27
2022-12-25T06:32:47.615Z,7.18
2022-12-25T06:35:14.076Z,7.20
2022-12-25T06:37:40.425Z,7.19
2022-12-25T06:40:07.528Z,7.21
2022-12-25T06:42:33.969Z,7.24
2022-12-25T06:45:00.388Z,7.26
2022-12-25T06:47:26.751Z,7.25
2022-12-25T06:49:53.119Z,7.23
2022-12-25T06:52:19.530Z,7.17
2022-12-25T06:54:47.163Z,7.20
2022-12-25T06:57:13.524Z,7.16
2022-12-25T06:59:40.027Z,7.15
2022-12-25T07:02:20.323Z,7.11
2022-12-25T07:04:48.118Z,7.14
2022-12-25T07:07:14.985Z,7.13
2022-12-25T07:09:41.466Z,7.16
2022-12-25T07:12:18.286Z,7.11
2022-12-25T07:14:45.573Z,7.17
2022-12-25T07:17:11.935Z,7.17
2022-12-25T07:19:44.482Z,7.16
2022-12-25T07:22:11.237Z,7.23
2022-12-25T07:24:37.633Z,7.27
2022-12-25T07:27:04.135Z,7.27
2022-12-25T07:29:30.552Z,7.25
2022-12-25T07:31:57.143Z,7.27
2022-12-25T07:34:23.559Z,7.26
2022-12-25T07:36:50.083Z,7.33
2022-12-25T07:39:16.507Z,7.37
2022-12-25T07:41:43.673Z,7.36
2022-12-25T07:44:10.022Z,7.35
2022-12-25T07:46:36.414Z,7.44
2022-12-25T07:49:02.773Z,7.44
2022-12-25T07:51:29.153Z,7.37
2022-12-25T07:53:56.283Z,7.42
2022-12-25T07:56:22.911Z,7.44
2022-12-25T07:58:49.712Z,7.46
2022-12-25T08:01:21.792Z,7.43
2022-12-25T08:03:52.569Z,7.51
2022-12-25T08:06:20.258Z,7.55
2022-12-25T08:08:47.143Z,7.54
2022-12-25T08:11:13.913Z,7.57
2022-12-25T08:13:41.011Z,7.62
2022-12-25T08:16:10.180Z,7.64
2022-12-25T08:18:38.164Z,7.64
2022-12-25T08:21:10.642Z,7.62
2022-12-25T08:23:39.751Z,7.71
2022-12-25T08:26:07.574Z,7.75
2022-12-25T08:28:34.636Z,7.74
2022-12-25T08:31:16.068Z,7.76
2022-12-25T08:33:43.473Z,7.77
2022-12-25T08:36:11.347Z,7.85
2022-12-25T08:38:38.118Z,7.87
2022-12-25T08:41:04.914Z,7.91
2022-12-25T08:43:31.423Z,7.93
2022-12-25T08:45:57.852Z,7.91
2022-12-25T08:48:24.579Z,7.96
2022-12-25T08:50:52.643Z,7.99
2022-12-25T08:53:19.599Z,7.97
2022-12-25T08:55:46.359Z,8.01
2022-12-25T08:58:13.534Z,8.06
2022-12-25T09:00:40.785Z,8.10
2022-12-25T09:03:07.199Z,8.08
2022-12-25T09:05:37.473Z,8.04
2022-12-25T09:08:04.231Z,8.09
2022-12-25T09:10:30.843Z,8.07
2022-12-25T09:12:57.400Z,8.12
2022-12-25T09:15:23.872Z,8.06
2022-12-25T09:17:50.261Z,8.11
2022-12-25T09:20:16.630Z,8.08
2022-12-25T09:22:43.022Z,8.12
2022-12-25T09:25:09.769Z,8.10
2022-12-25T09:27:36.312Z,8.11
2022-12-25T09:30:03.257Z,8.12
2022-12-25T09:32:29.606Z,8.13
2022-12-25T09:34:55.991Z,8.09
2022-12-25T09:37:22.540Z,8.15
2022-12-25T09:39:48.954Z,8.13
2022-12-25T09:42:20.566Z,8.15
2022-12-25T09:44:53.443Z,8.10
2022-12-25T09:47:24.748Z,8.10
2022-12-25T09:50:02.773Z,8.09
2022-12-25T09:52:43.875Z,8.05
2022-12-25T09:55:14.735Z,8.08
2022-12-25T09:57:45.663Z,8.07
2022-12-25T10:00:18.043Z,8.13
2022-12-25T10:03:03.371Z,8.12
2022-12-25T10:05:41.921Z,8.14
2022-12-25T10:08:45.836Z,8.19
2022-12-25T10:11:43.412Z,8.14
2022-12-25T10:14:30.426Z,8.20
2022-12-25T10:17:18.575Z,8.18
2022-12-25T10:20:13.954Z,8.14
2022-12-25T10:22:44.253Z,8.14
2022-12-25T10:25:22.921Z,8.17
2022-12-25T10:28:01.364Z,8.17
2022-12-25T10:30:28.818Z,8.18
2022-12-25T10:32:57.533Z,8.17
2022-12-25T10:35:27.338Z,8.19
2022-12-25T10:37:59.840Z,8.21
2022-12-25T10:40:59.915Z,8.23
2022-12-25T10:43:51.846Z,8.28
2022-12-25T10:46:20.752Z,8.26
2022-12-25T10:48:59.348Z,8.26
2022-12-25T10:51:37.719Z,8.31
2022-12-25T10:54:20.470Z,8.37
2022-12-25T10:57:03.942Z,8.35
2022-12-25T10:59:35.206Z,8.42
2022-12-25T11:02:28.223Z,8.42
2022-12-25T11:05:04.809Z,8.38
2022-12-25T11:07:33.150Z,8.37
2022-12-25T11:10:16.113Z,8.37
2022-12-25T11:12:44.680Z,8.32
2022-12-25T11:15:39.315Z,8.29
2022-12-25T11:18:24.046Z,8.29
2022-12-25T11:20:52.632Z,8.27
2022-12-25T11:23:21.222Z,8.26
2022-12-25T11:26:05.451Z,8.23
2022-12-25T11:28:33.147Z,8.26
2022-12-25T11:31:05.483Z,8.26
2022-12-25T11:33:37.275Z,8.21
2022-12-25T11:36:15.407Z,8.22
2022-12-25T11:38:41.786Z,8.17
2022-12-25T11:41:10.860Z,8.13
2022-12-25T11:43:47.122Z,8.16
2022-12-25T11:46:26.694Z,8.13
2022-12-25T11:48:58.247Z,8.18
2022-12-25T11:51:28.906Z,8.14
2022-12-25T11:54:02.344Z,8.23
2022-12-25T11:56:30.753Z,8.26
2022-12-25T11:59:03.608Z,8.26
2022-12-25T12:01:52.880Z,8.24
2022-12-25T12:04:31.053Z,8.31
2022-12-25T12:07:20.993Z,8.35
2022-12-25T12:10:21.413Z,8.35
2022-12-25T12:13:24.651Z,8.38
2022-12-25T12:15:51.433Z,8.36
2022-12-25T12:18:31.650Z,8.47
2022-12-25T12:21:02.438Z,8.44
2022-12-25T12:23:31.587Z,8.50
2022-12-25T12:25:58.338Z,8.47
2022-12-25T12:28:27.877Z,8.45
2022-12-25T12:31:13.132Z,8.57
2022-12-25T12:33:59.611Z,8.54
2022-12-25T12:36:35.571Z,8.53
2022-12-25T12:39:04.157Z,8.55
2022-12-25T12:41:48.464Z,8.55
2022-12-25T12:44:17.382Z,8.64
2022-12-25T12:46:57.447Z,8.69
2022-12-25T12:49:26.639Z,8.64
2022-12-25T12:52:22.320Z,8.69
2022-12-25T12:54:56.469Z,8.65
2022-12-25T12:57:26.679Z,8.68
2022-12-25T12:59:53.086Z,8.68
2022-12-25T13:02:38.080Z,8.64
2022-12-25T13:05:37.107Z,8.68
2022-12-25T13:08:21.757Z,8.67
2022-12-25T13:10:50.588Z,8.69
2022-12-25T13:13:22.099Z,8.68
2022-12-25T13:15:50.810Z,8.74
2022-12-25T13:18:17.658Z,8.74
2022-12-25T13:20:59.925Z,8.78
2022-12-25T13:23:29.216Z,8.77
2022-12-25T13:26:01.027Z,8.71
2022-12-25T13:28:35.309Z,8.77
2022-12-25T13:31:13.975Z,8.76
2022-12-25T13:33:45.218Z,8.78
2022-12-25T13:36:13.774Z,8.76
2022-12-25T13:38:48.915Z,8.83
2022-12-25T13:41:20.614Z,8.79
2022-12-25T13:43:48.613Z,8.82
2022-12-25T13:46:15.533Z,8.88
2022-12-25T13:48:42.802Z,8.83
2022-12-25T13:51:14.435Z,8.83
2022-12-25T13:53:40.814Z,8.86
2022-12-25T13:56:14.391Z,8.85
2022-12-25T13:58:40.908Z,8.79
2022-12-25T14:01:08.545Z,8.74
2022-12-25T14:03:43.735Z,8.77
2022-12-25T14:06:31.905Z,8.78
2022-12-25T14:08:59.486Z,8.74
2022-12-25T14:11:28.520Z,8.77
2022-12-25T14:13:59.970Z,8.73
2022-12-25T14:16:27.218Z,8.64
2022-12-25T14:19:01.287Z,8.67
2022-12-25T14:21:35.256Z,8.67
2022-12-25T14:24:02.112Z,8.64
2022-12-25T14:26:31.549Z,8.63
2022-12-25T14:29:16.589Z,8.63
2022-12-25T14:31:45.218Z,8.63
2022-12-25T14:34:23.246Z,8.61
2022-12-25T14:36:51.836Z,8.63
2022-12-25T14:39:28.037Z,8.56
2022-12-25T14:41:54.739Z,8.55
2022-12-25T14:44:33.677Z,8.57
2022-12-25T14:47:26.186Z,8.58
2022-12-25T14:49:52.590Z,8.55
2022-12-25T14:52:21.655Z,8.56
2022-12-25T14:54:52.989Z,8.56
2022-12-25T14:57:28.016Z,8.56
2022-12-25T14:59:56.902Z,8.62
2022-12-25T15:02:23.853Z,8.62
2022-12-25T15:04:50.287Z,8.63
2022-12-25T15:07:30.792Z,8.70
2022-12-25T15:10:27.097Z,8.68
2022-12-25T15:12:44.033Z,8.73
2022-12-25T15:15:10.594Z,8.73
2022-12-25T15:17:36.941Z,8.74
2022-12-25T15:20:03.732Z,8.66
2022-12-25T15:22:47.742Z,8.66
2022-12-25T15:25:16.517Z,8.59
2022-12-25T15:27:43.103Z,8.53
2022-12-25T15:30:11.003Z,8.52
2022-12-25T15:32:37.935Z,8.56
2022-12-25T15:35:05.313Z,8.52
2022-12-25T15:37:31.955Z,8.51
2022-12-25T15:39:58.352Z,8.47
2022-12-25T15:42:25.339Z,8.52
2022-12-25T15:44:52.005Z,8.45
2022-12-25T15:47:19.251Z,8.50
2022-12-25T15:49:45.847Z,8.49
2022-12-25T15:52:15.653Z,8.48
2022-12-25T15:54:42.084Z,8.56
2022-12-25T15:57:17.831Z,8.58
2022-12-25T15:59:44.196Z,8.55
2022-12-25T16:02:19.920Z,8.59
2022-12-25T16:04:46.476Z,8.66
2022-12-25T16:07:17.987Z,8.61
2022-12-25T16:09:45.108Z,8.65
2022-12-25T16:12:11.711Z,8.61
2022-12-25T16:14:38.157Z,8.66
2022-12-25T16:17:05.167Z,8.64
2022-12-25T16:19:31.743Z,8.64
2022-12-25T16:21:58.360Z,8.63
2022-12-25T16:24:24.741Z,8.57
2022-12-25T16:26:51.118Z,8.60
2022-12-25T16:29:17.573Z,8.61
2022-12-25T16:31:44.253Z,8.58
2022-12-25T16:34:10.692Z,8.58
2022-12-25T16:36:37.240Z,8.60
2022-12-25T16:39:04.713Z,8.63
2022-12-25T16:41:31.401Z,8.52
2022-12-25T16:43:57.865Z,8.50
2022-12-25T16:46:24.533Z,8.48
2022-12-25T16:48:50.890Z,8.37
2022-12-25T16:51:19.739Z,8.42
2022-12-25T16:53:46.197Z,8.43
2022-12-25T16:56:15.268Z,8.43
2022-12-25T16:58:43.549Z,8.38
2022-12-25T17:01:11.925Z,8.40
2022-12-25T17:03:38.894Z,8.38
2022-12-25T17:06:25.552Z,8.36
2022-12-25T17:08:55.192Z,8.37
2022-12-25T17:11:21.588Z,8.40
2022-12-25T17:13:48.604Z,8.40
2022-12-25T17:16:17.518Z,8.41
2022-12-25T17:18:44.376Z,8.40
2022-12-25T17:21:11.210Z,8.37
2022-12-25T17:23:38.416Z,8.36
2022-12-25T17:26:05.786Z,8.32
2022-12-25T17:28:34.078Z,8.32
2022-12-25T17:31:05.463Z,8.33
2022-12-25T17:33:32.424Z,8.32
2022-12-25T17:36:04.230Z,8.24
2022-12-25T17:38:32.261Z,8.21
2022-12-25T17:40:59.683Z,8.26
2022-12-25T17:43:26.590Z,8.24
2022-12-25T17:45:53.053Z,8.22
2022-12-25T17:48:22.168Z,8.13
2022-12-25T17:50:49.101Z,8.17
2022-12-25T17:53:15.473Z,8.12
2022-12-25T17:55:41.975Z,8.12
2022-12-25T17:58:08.929Z,8.17
2022-12-25T18:00:36.351Z,8.14
2022-12-25T18:03:09.095Z,8.21
2022-12-25T18:05:37.843Z,8.18
2022-12-25T18:08:04.427Z,8.15
2022-12-25T18:10:39.152Z,8.11
2022-12-25T18:13:05.589Z,8.10
2022-12-25T18:15:32.156Z,8.05
2022-12-25T18:17:58.497Z,8.08
2022-12-25T18:20:24.848Z,8.08
2022-12-25T18:22:51.213Z,8.10
2022-12-25T18:25:17.590Z,8.04
2022-12-25T18:27:43.950Z,8.09
2022-12-25T18:30:10.640Z,8.05
2022-12-25T18:32:37.082Z,8.05
2022-12-25T18:35:04.933Z,8.03
2022-12-25T18:37:34.450Z,8.06
2022-12-25T18:40:06.690Z,8.00
2022-12-25T18:42:33.069Z,8.03
2022-12-25T18:44:59.612Z,8.04
2022-12-25T18:47:26.328Z,8.03
2022-12-25T18:49:52.803Z,8.03
2022-12-25T18:52:49.816Z,7.98
2022-12-25T18:55:06.974Z,8.01
2022-12-25T18:57:33.456Z,7.98
2022-12-25T19:00:00.368Z,8.00
2022-12-25T19:02:27.469Z,8.00
2022-12-25T19:04:54.953Z,7.96
2022-12-25T19:07:22.312Z,7.89
2022-12-25T19:09:49.617Z,7.87
2022-12-25T19:12:16.403Z,7.90
2022-12-25T19:14:47.751Z,7.86
2022-12-25T19:17:14.574Z,7.93
2022-12-25T19:19:41.001Z,7.95
2022-12-25T19:22:07.882Z,7.95
2022-12-25T19:24:35.680Z,7.97
2022-12-25T19:27:02.501Z,7.96
2022-12-25T19:29:29.414Z,7.95
2022-12-25T19:31:56.304Z,7.95
2022-12-25T19:34:23.105Z,7.94
2022-12-25T19:36:49.424Z,7.95
2022-12-25T19:39:16.051Z,7.93
2022-12-25T19:41:42.432Z,7.93
2022-12-25T19:44:08.857Z,7.96
2022-12-25T19:46:38.340Z,7.94
2022-12-25T19:49:05.242Z,7.84
2022-12-25T19:51:36.991Z,7.85
2022-12-25T19:54:04.782Z,7.76
2022-12-25T19:56:32.303Z,7.75
2022-12-25T19:58:59.195Z,7.75
2022-12-25T20:01:27.777Z,7.76
2022-12-25T20:03:54.793Z,7.75
2022-12-25T20:06:24.221Z,7.73
2022-12-25T20:08:53.202Z,7.68
2022-12-25T20:11:21.118Z,7.69
2022-12-25T20:13:50.723Z,7.69
2022-12-25T20:16:17.403Z,7.72
2022-12-25T20:18:43.897Z,7.68
2022-12-25T20:21:16.394Z,7.73
2022-12-25T20:23:44.282Z,7.74
2022-12-25T20:26:12.878Z,7.75
2022-12-25T20:28:40.641Z,7.81
2022-12-25T20:31:08.600Z,7.79
2022-12-25T20:33:36.107Z,7.84
2022-12-25T20:36:03.988Z,7.89
2022-12-25T20:38:30.779Z,7.90
2022-12-25T20:41:26.324Z,7.90
2022-12-25T20:43:47.674Z,7.88
2022-12-25T20:46:14.479Z,7.84
2022-12-25T20:48:40.914Z,7.82
2022-12-25T20:51:18.919Z,7.81
2022-12-25T20:53:45.717Z,7.80
2022-12-25T20:56:14.216Z,7.78
2022-12-25T20:58:41.041Z,7.76
2022-12-25T21:01:09.425Z,7.70
2022-12-25T21:03:35.928Z,7.70
2022-12-25T21:06:02.982Z,7.70
2022-12-25T21:08:30.072Z,7.67
2022-12-25T21:10:58.715Z,7.67
2022-12-25T21:13:25.197Z,7.65
2022-12-25T21:15:52.413Z,7.69
2022-12-25T21:18:20.924Z,7.64
2022-12-25T21:20:50.350Z,7.70
2022-12-25T21:23:17.457Z,7.65
2022-12-25T21:25:44.684Z,7.73
2022-12-25T21:28:11.208Z,7.74
2022-12-25T21:30:37.882Z,7.74
2022-12-25T21:33:05.248Z,7.77
2022-12-25T21:35:31.653Z,7.78
2022-12-25T21:37:58.085Z,7.77
2022-12-25T21:40:24.618Z,7.79
2022-12-25T21:42:52.074Z,7.73
2022-12-25T21:45:18.496Z,7.75
2022-12-25T21:48:01.955Z,7.72
2022-12-25T21:50:32.425Z,7.78
2022-12-25T21:53:01.070Z,7.77
2022-12-25T21:55:27.452Z,7.71
2022-12-25T21:57:54.135Z,7.68
2022-12-25T22:00:20.734Z,7.69
2022-12-25T22:02:50.225Z,7.68
2022-12-25T22:05:16.634Z,7.71
2022-12-25T22:07:43.041Z,7.69
2022-12-25T22:10:09.426Z,7.72
2022-12-25T22:12:35.880Z,7.75
2022-12-25T22:15:04.549Z,7.78
2022-12-25T22:17:33.368Z,7.83
2022-12-25T22:19:59.779Z,7.85
2022-12-25T22:22:29.615Z,7.89
2022-12-25T22:25:01.358Z,7.93
2022-12-25T22:27:36.678Z,7.98
2022-12-25T22:30:05.237Z,7.97
2022-12-25T22:32:31.655Z,8.08
2022-12-25T22:34:58.084Z,8.07
2022-12-25T22:37:24.470Z,8.09
2022-12-25T22:39:50.923Z,8.11
2022-12-25T22:42:17.635Z,8.21
2022-12-25T22:44:44.065Z,8.25
2022-12-25T22:47:10.492Z,8.24
2022-12-25T22:49:37.174Z,8.32
2022-12-25T22:52:03.921Z,8.36
2022-12-25T22:54:31.454Z,8.40
2022-12-25T22:56:58.254Z,8.43
2022-12-25T22:59:25.261Z,8.46
2022-12-25T23:01:51.772Z,8.49
2022-12-25T23:04:18.331Z,8.51
2022-12-25T23:06:44.917Z,8.49
2022-12-25T23:09:18.857Z,8.53
2022-12-25T23:11:48.641Z,8.56
2022-12-25T23:14:15.069Z,8.57
2022-12-25T23:16:41.522Z,8.55
2022-12-25T23:19:10.903Z,8.55
2022-12-25T23:21:38.162Z,8.60
2022-12-25T23:24:04.932Z,8.57
2022-12-25T23:26:31.357Z,8.61
2022-12-25T23:28:57.791Z,8.58
2022-12-25T23:31:30.643Z,8.65
2022-12-25T23:33:57.783Z,8.56
2022-12-25T23:36:24.219Z,8.66
2022-12-25T23:38:50.552Z,8.63
2022-12-25T23:41:16.976Z,8.69
2022-12-25T23:43:43.329Z,8.70
2022-12-25T23:46:09.747Z,8.70
2022-12-25T23:48:36.178Z,8.68
2022-12-25T23:51:06.643Z,8.68
2022-12-25T23:53:34.399Z,8.65
2022-12-25T23:56:01.452Z,8.71
2022-12-25T23:58:29.065Z,8.68
